sensor_id;sensor_type;location;lat;lon;timestamp;temperature;humidity
14103;DHT22;7129;48.832;12.472;2022-10-16T00:00:18;15.60;99.90
14103;DHT22;7129;48.832;12.472;2022-10-16T00:05:20;15.60;99.90
14103;DHT22;7129;48.832;12.472;2022-10-16T00:10:24;15.60;99.90
14103;DHT22;7129;48.832;12.472;2022-10-16T00:15:26;15.60;99.90
14103;DHT22;7129;48.832;12.472;2022-10-16T00:20:28;15.60;99.90
14103;DHT22;7129;48.832;12.472;2022-10-16T00:25:33;15.50;99.90
14103;DHT22;7129;48.832;12.472;2022-10-16T00:30:37;15.50;99.90
14103;DHT22;7129;48.832;12.472;2022-10-16T00:35:39;15.50;99.90
14103;DHT22;7129;48.832;12.472;2022-10-16T00:40:45;15.50;99.90
14103;DHT22;7129;48.832;12.472;2022-10-16T00:45:57;15.40;99.90
14103;DHT22;7129;48.832;12.472;2022-10-16T00:51:15;15.40;99.90
14103;DHT22;7129;48.832;12.472;2022-10-16T00:56:40;15.40;99.90
14103;DHT22;7129;48.832;12.472;2022-10-16T01:01:42;15.40;99.90
14103;DHT22;7129;48.832;12.472;2022-10-16T01:06:51;15.40;99.90
14103;DHT22;7129;48.832;12.472;2022-10-16T01:12:06;15.30;99.90
14103;DHT22;7129;48.832;12.472;2022-10-16T01:17:12;15.30;99.90
14103;DHT22;7129;48.832;12.472;2022-10-16T01:22:18;15.20;99.90
14103;DHT22;7129;48.832;12.472;2022-10-16T01:27:25;15.20;99.90
14103;DHT22;7129;48.832;12.472;2022-10-16T01:32:33;15.20;99.90
14103;DHT22;7129;48.832;12.472;2022-10-16T01:37:39;15.10;99.90
14103;DHT22;7129;48.832;12.472;2022-10-16T01:42:48;15.10;99.90
14103;DHT22;7129;48.832;12.472;2022-10-16T01:47:52;15.00;99.90
14103;DHT22;7129;48.832;12.472;2022-10-16T01:52:56;15.00;99.90
14103;DHT22;7129;48.832;12.472;2022-10-16T01:58:01;14.90;99.90
14103;DHT22;7129;48.832;12.472;2022-10-16T02:03:05;14.90;99.90
14103;DHT22;7129;48.832;12.472;2022-10-16T02:08:07;14.90;99.90
14103;DHT22;7129;48.832;12.472;2022-10-16T02:13:13;14.80;99.90
14103;DHT22;7129;48.832;12.472;2022-10-16T02:18:17;14.80;99.90
14103;DHT22;7129;48.832;12.472;2022-10-16T02:23:51;14.70;99.90
14103;DHT22;7129;48.832;12.472;2022-10-16T02:35:16;14.60;99.90
14103;DHT22;7129;48.832;12.472;2022-10-16T02:40:19;14.60;99.90
14103;DHT22;7129;48.832;12.472;2022-10-16T02:45:21;14.50;99.90
14103;DHT22;7129;48.832;12.472;2022-10-16T02:50:25;14.50;99.90
14103;DHT22;7129;48.832;12.472;2022-10-16T02:55:27;14.40;99.90
14103;DHT22;7129;48.832;12.472;2022-10-16T03:00:29;14.40;99.90
14103;DHT22;7129;48.832;12.472;2022-10-16T03:05:42;14.30;99.90
14103;DHT22;7129;48.832;12.472;2022-10-16T03:10:46;14.20;99.90
14103;DHT22;7129;48.832;12.472;2022-10-16T03:15:48;14.10;99.90
14103;DHT22;7129;48.832;12.472;2022-10-16T03:31:39;14.00;99.90
14103;DHT22;7129;48.832;12.472;2022-10-16T03:36:42;14.00;99.90
14103;DHT22;7129;48.832;12.472;2022-10-16T03:41:44;13.90;99.90
14103;DHT22;7129;48.832;12.472;2022-10-16T03:46:46;13.90;99.90
14103;DHT22;7129;48.832;12.472;2022-10-16T03:51:50;14.00;99.90
14103;DHT22;7129;48.832;12.472;2022-10-16T03:56:52;14.00;99.90
14103;DHT22;7129;48.832;12.472;2022-10-16T04:01:54;13.90;99.90
14103;DHT22;7129;48.832;12.472;2022-10-16T04:06:57;13.90;99.90
14103;DHT22;7129;48.832;12.472;2022-10-16T04:11:59;14.00;99.90
14103;DHT22;7129;48.832;12.472;2022-10-16T04:17:01;14.10;99.90
14103;DHT22;7129;48.832;12.472;2022-10-16T04:22:04;14.20;99.90
14103;DHT22;7129;48.832;12.472;2022-10-16T04:27:06;14.20;99.90
14103;DHT22;7129;48.832;12.472;2022-10-16T04:32:09;14.20;99.90
14103;DHT22;7129;48.832;12.472;2022-10-16T04:37:12;14.20;99.90
14103;DHT22;7129;48.832;12.472;2022-10-16T04:42:14;14.10;99.90
14103;DHT22;7129;48.832;12.472;2022-10-16T04:47:16;14.10;99.90
14103;DHT22;7129;48.832;12.472;2022-10-16T04:52:19;14.10;99.90
14103;DHT22;7129;48.832;12.472;2022-10-16T04:57:22;14.10;99.90
14103;DHT22;7129;48.832;12.472;2022-10-16T05:02:24;14.10;99.90
14103;DHT22;7129;48.832;12.472;2022-10-16T05:07:27;14.00;99.90
14103;DHT22;7129;48.832;12.472;2022-10-16T05:12:33;14.00;99.90
14103;DHT22;7129;48.832;12.472;2022-10-16T05:17:47;14.00;99.90
14103;DHT22;7129;48.832;12.472;2022-10-16T05:22:51;14.00;99.90
14103;DHT22;7129;48.832;12.472;2022-10-16T05:27:53;14.00;99.90
14103;DHT22;7129;48.832;12.472;2022-10-16T05:32:57;14.10;99.90
14103;DHT22;7129;48.832;12.472;2022-10-16T05:38:01;14.10;99.90
14103;DHT22;7129;48.832;12.472;2022-10-16T05:43:03;14.00;99.90
14103;DHT22;7129;48.832;12.472;2022-10-16T05:48:05;14.00;99.90
14103;DHT22;7129;48.832;12.472;2022-10-16T05:53:08;13.80;99.90
14103;DHT22;7129;48.832;12.472;2022-10-16T05:58:10;13.80;99.90
14103;DHT22;7129;48.832;12.472;2022-10-16T06:03:12;13.90;99.90
14103;DHT22;7129;48.832;12.472;2022-10-16T06:08:33;14.00;99.90
14103;DHT22;7129;48.832;12.472;2022-10-16T06:13:49;14.00;99.90
14103;DHT22;7129;48.832;12.472;2022-10-16T06:18:52;13.90;99.90
14103;DHT22;7129;48.832;12.472;2022-10-16T06:23:56;13.90;99.90
14103;DHT22;7129;48.832;12.472;2022-10-16T06:28:59;14.00;99.90
14103;DHT22;7129;48.832;12.472;2022-10-16T06:34:01;13.90;99.90
14103;DHT22;7129;48.832;12.472;2022-10-16T06:39:07;13.90;99.90
14103;DHT22;7129;48.832;12.472;2022-10-16T06:44:15;14.00;99.90
14103;DHT22;7129;48.832;12.472;2022-10-16T06:49:25;14.10;99.90
14103;DHT22;7129;48.832;12.472;2022-10-16T06:54:30;14.40;99.90
14103;DHT22;7129;48.832;12.472;2022-10-16T06:59:32;14.70;99.90
14103;DHT22;7129;48.832;12.472;2022-10-16T07:04:35;14.60;99.90
14103;DHT22;7129;48.832;12.472;2022-10-16T07:09:40;14.60;99.90
14103;DHT22;7129;48.832;12.472;2022-10-16T07:14:42;14.70;99.90
14103;DHT22;7129;48.832;12.472;2022-10-16T07:19:44;14.90;99.90
14103;DHT22;7129;48.832;12.472;2022-10-16T07:24:48;15.50;99.90
14103;DHT22;7129;48.832;12.472;2022-10-16T07:29:50;15.80;99.90
14103;DHT22;7129;48.832;12.472;2022-10-16T07:34:52;15.90;99.90
14103;DHT22;7129;48.832;12.472;2022-10-16T07:39:57;15.80;99.90
14103;DHT22;7129;48.832;12.472;2022-10-16T07:44:59;15.90;99.90
14103;DHT22;7129;48.832;12.472;2022-10-16T07:50:01;16.00;99.90
14103;DHT22;7129;48.832;12.472;2022-10-16T07:55:05;15.80;99.90
14103;DHT22;7129;48.832;12.472;2022-10-16T08:00:08;15.40;99.90
14103;DHT22;7129;48.832;12.472;2022-10-16T08:05:14;15.30;99.90
14103;DHT22;7129;48.832;12.472;2022-10-16T08:10:18;15.20;99.90
14103;DHT22;7129;48.832;12.472;2022-10-16T08:15:21;15.40;99.90
14103;DHT22;7129;48.832;12.472;2022-10-16T08:20:23;15.50;99.90
14103;DHT22;7129;48.832;12.472;2022-10-16T08:25:29;15.70;99.90
14103;DHT22;7129;48.832;12.472;2022-10-16T08:30:31;15.90;99.90
14103;DHT22;7129;48.832;12.472;2022-10-16T08:35:33;16.00;99.90
14103;DHT22;7129;48.832;12.472;2022-10-16T08:40:37;16.30;99.90
14103;DHT22;7129;48.832;12.472;2022-10-16T08:45:47;16.20;99.90
14103;DHT22;7129;48.832;12.472;2022-10-16T08:50:53;16.40;99.90
14103;DHT22;7129;48.832;12.472;2022-10-16T08:55:57;16.70;99.90
14103;DHT22;7129;48.832;12.472;2022-10-16T09:01:38;16.80;99.90
14103;DHT22;7129;48.832;12.472;2022-10-16T09:06:45;17.00;99.90
14103;DHT22;7129;48.832;12.472;2022-10-16T09:11:55;17.30;99.90
14103;DHT22;7129;48.832;12.472;2022-10-16T09:17:01;17.30;99.90
14103;DHT22;7129;48.832;12.472;2022-10-16T09:22:12;17.30;99.90
14103;DHT22;7129;48.832;12.472;2022-10-16T09:27:16;17.20;99.90
14103;DHT22;7129;48.832;12.472;2022-10-16T09:32:21;17.30;99.90
14103;DHT22;7129;48.832;12.472;2022-10-16T09:37:24;17.40;99.90
14103;DHT22;7129;48.832;12.472;2022-10-16T09:42:32;17.60;99.90
14103;DHT22;7129;48.832;12.472;2022-10-16T09:47:44;18.50;99.90
14103;DHT22;7129;48.832;12.472;2022-10-16T09:52:46;19.40;99.90
14103;DHT22;7129;48.832;12.472;2022-10-16T09:57:50;19.40;99.90
14103;DHT22;7129;48.832;12.472;2022-10-16T10:02:52;19.50;99.90
14103;DHT22;7129;48.832;12.472;2022-10-16T10:07:56;20.50;99.90
14103;DHT22;7129;48.832;12.472;2022-10-16T10:13:01;20.90;99.90
14103;DHT22;7129;48.832;12.472;2022-10-16T10:18:16;20.10;99.90
14103;DHT22;7129;48.832;12.472;2022-10-16T10:23:21;19.50;99.90
14103;DHT22;7129;48.832;12.472;2022-10-16T10:28:49;19.30;99.90
14103;DHT22;7129;48.832;12.472;2022-10-16T10:33:58;19.30;99.90
14103;DHT22;7129;48.832;12.472;2022-10-16T10:39:07;19.40;99.90
14103;DHT22;7129;48.832;12.472;2022-10-16T10:44:18;19.30;99.90
14103;DHT22;7129;48.832;12.472;2022-10-16T10:49:34;19.30;99.90
14103;DHT22;7129;48.832;12.472;2022-10-16T10:54:45;19.50;99.90
14103;DHT22;7129;48.832;12.472;2022-10-16T11:00:01;19.90;99.90
14103;DHT22;7129;48.832;12.472;2022-10-16T11:05:21;20.40;99.90
14103;DHT22;7129;48.832;12.472;2022-10-16T11:10:28;20.40;99.90
14103;DHT22;7129;48.832;12.472;2022-10-16T11:15:36;20.40;99.90
14103;DHT22;7129;48.832;12.472;2022-10-16T11:20:42;20.80;99.90
14103;DHT22;7129;48.832;12.472;2022-10-16T11:25:47;20.60;99.90
14103;DHT22;7129;48.832;12.472;2022-10-16T11:30:57;20.40;99.90
14103;DHT22;7129;48.832;12.472;2022-10-16T11:36:31;20.40;99.90
14103;DHT22;7129;48.832;12.472;2022-10-16T11:41:36;20.50;99.90
14103;DHT22;7129;48.832;12.472;2022-10-16T11:46:46;20.70;99.90
14103;DHT22;7129;48.832;12.472;2022-10-16T11:51:59;21.00;99.90
14103;DHT22;7129;48.832;12.472;2022-10-16T11:57:16;21.20;99.90
14103;DHT22;7129;48.832;12.472;2022-10-16T12:02:38;21.40;99.90
14103;DHT22;7129;48.832;12.472;2022-10-16T12:07:48;21.60;99.90
14103;DHT22;7129;48.832;12.472;2022-10-16T12:12:52;21.60;99.90
14103;DHT22;7129;48.832;12.472;2022-10-16T12:17:56;21.70;99.90
14103;DHT22;7129;48.832;12.472;2022-10-16T12:23:00;21.80;99.90
14103;DHT22;7129;48.832;12.472;2022-10-16T12:28:05;22.00;99.90
14103;DHT22;7129;48.832;12.472;2022-10-16T12:33:20;22.10;99.90
14103;DHT22;7129;48.832;12.472;2022-10-16T12:38:26;22.30;99.90
14103;DHT22;7129;48.832;12.472;2022-10-16T12:43:37;22.20;99.90
14103;DHT22;7129;48.832;12.472;2022-10-16T12:48:43;22.20;99.90
14103;DHT22;7129;48.832;12.472;2022-10-16T12:53:46;22.30;99.90
14103;DHT22;7129;48.832;12.472;2022-10-16T12:58:57;22.30;99.90
14103;DHT22;7129;48.832;12.472;2022-10-16T13:04:29;22.10;99.90
14103;DHT22;7129;48.832;12.472;2022-10-16T13:09:43;22.10;99.90
14103;DHT22;7129;48.832;12.472;2022-10-16T13:20:22;22.40;99.90
14103;DHT22;7129;48.832;12.472;2022-10-16T13:25:35;22.60;99.90
14103;DHT22;7129;48.832;12.472;2022-10-16T13:30:41;22.60;99.90
14103;DHT22;7129;48.832;12.472;2022-10-16T13:35:50;22.60;99.90
14103;DHT22;7129;48.832;12.472;2022-10-16T13:40:54;22.60;99.90
14103;DHT22;7129;48.832;12.472;2022-10-16T13:45:59;22.50;99.90
14103;DHT22;7129;48.832;12.472;2022-10-16T13:51:12;22.30;99.90
14103;DHT22;7129;48.832;12.472;2022-10-16T13:56:16;22.20;99.90
14103;DHT22;7129;48.832;12.472;2022-10-16T14:01:20;22.10;99.90
14103;DHT22;7129;48.832;12.472;2022-10-16T14:06:25;22.20;99.90
14103;DHT22;7129;48.832;12.472;2022-10-16T14:11:28;22.50;99.90
14103;DHT22;7129;48.832;12.472;2022-10-16T14:16:31;22.70;99.90
14103;DHT22;7129;48.832;12.472;2022-10-16T14:21:36;22.70;99.90
14103;DHT22;7129;48.832;12.472;2022-10-16T14:26:42;22.60;99.90
14103;DHT22;7129;48.832;12.472;2022-10-16T14:31:55;22.30;99.90
14103;DHT22;7129;48.832;12.472;2022-10-16T14:37:01;22.00;99.90
14103;DHT22;7129;48.832;12.472;2022-10-16T14:42:14;22.10;99.90
14103;DHT22;7129;48.832;12.472;2022-10-16T14:47:19;21.90;99.90
14103;DHT22;7129;48.832;12.472;2022-10-16T14:52:26;21.90;99.90
14103;DHT22;7129;48.832;12.472;2022-10-16T14:57:31;21.80;99.90
14103;DHT22;7129;48.832;12.472;2022-10-16T15:02:35;21.70;99.90
14103;DHT22;7129;48.832;12.472;2022-10-16T15:07:39;21.60;99.90
14103;DHT22;7129;48.832;12.472;2022-10-16T15:12:41;21.80;99.90
14103;DHT22;7129;48.832;12.472;2022-10-16T15:17:43;21.80;99.90
14103;DHT22;7129;48.832;12.472;2022-10-16T15:22:47;21.90;99.90
14103;DHT22;7129;48.832;12.472;2022-10-16T15:27:49;21.80;99.90
14103;DHT22;7129;48.832;12.472;2022-10-16T15:32:51;21.80;99.90
14103;DHT22;7129;48.832;12.472;2022-10-16T15:37:55;21.70;99.90
14103;DHT22;7129;48.832;12.472;2022-10-16T15:42:57;21.60;99.90
14103;DHT22;7129;48.832;12.472;2022-10-16T15:48:01;21.50;99.90
14103;DHT22;7129;48.832;12.472;2022-10-16T15:53:05;21.40;99.90
14103;DHT22;7129;48.832;12.472;2022-10-16T15:58:07;21.30;99.90
14103;DHT22;7129;48.832;12.472;2022-10-16T16:03:09;21.10;99.90
14103;DHT22;7129;48.832;12.472;2022-10-16T16:08:12;20.70;99.90
14103;DHT22;7129;48.832;12.472;2022-10-16T16:13:14;20.70;99.90
14103;DHT22;7129;48.832;12.472;2022-10-16T16:18:16;20.70;99.90
14103;DHT22;7129;48.832;12.472;2022-10-16T16:23:19;20.60;99.90
14103;DHT22;7129;48.832;12.472;2022-10-16T16:28:22;20.40;99.90
14103;DHT22;7129;48.832;12.472;2022-10-16T16:33:24;20.10;99.90
14103;DHT22;7129;48.832;12.472;2022-10-16T16:38:28;20.00;99.90
14103;DHT22;7129;48.832;12.472;2022-10-16T16:43:33;20.00;99.90
14103;DHT22;7129;48.832;12.472;2022-10-16T16:48:37;19.80;99.90
14103;DHT22;7129;48.832;12.472;2022-10-16T16:53:55;19.60;99.90
14103;DHT22;7129;48.832;12.472;2022-10-16T16:59:12;19.60;99.90
14103;DHT22;7129;48.832;12.472;2022-10-16T17:04:15;19.40;99.90
14103;DHT22;7129;48.832;12.472;2022-10-16T17:09:18;19.40;99.90
14103;DHT22;7129;48.832;12.472;2022-10-16T17:14:20;19.40;99.90
14103;DHT22;7129;48.832;12.472;2022-10-16T17:19:22;19.50;99.90
14103;DHT22;7129;48.832;12.472;2022-10-16T17:24:25;19.50;99.90
14103;DHT22;7129;48.832;12.472;2022-10-16T17:29:27;19.40;99.90
14103;DHT22;7129;48.832;12.472;2022-10-16T17:39:44;19.40;99.90
14103;DHT22;7129;48.832;12.472;2022-10-16T17:44:46;19.30;99.90
14103;DHT22;7129;48.832;12.472;2022-10-16T17:49:48;19.30;99.90
14103;DHT22;7129;48.832;12.472;2022-10-16T18:06:28;19.10;99.90
14103;DHT22;7129;48.832;12.472;2022-10-16T18:11:31;19.20;99.90
14103;DHT22;7129;48.832;12.472;2022-10-16T18:28:51;19.10;99.90
14103;DHT22;7129;48.832;12.472;2022-10-16T19:04:47;18.80;99.90
14103;DHT22;7129;48.832;12.472;2022-10-16T19:15:49;18.50;99.90
14103;DHT22;7129;48.832;12.472;2022-10-16T19:20:59;18.50;99.90
14103;DHT22;7129;48.832;12.472;2022-10-16T19:26:02;18.40;99.90
14103;DHT22;7129;48.832;12.472;2022-10-16T19:31:07;18.30;99.90
14103;DHT22;7129;48.832;12.472;2022-10-16T19:58:05;18.00;99.90
14103;DHT22;7129;48.832;12.472;2022-10-16T20:03:08;17.80;99.90
14103;DHT22;7129;48.832;12.472;2022-10-16T20:08:09;17.80;99.90
14103;DHT22;7129;48.832;12.472;2022-10-16T20:13:13;17.80;99.90
14103;DHT22;7129;48.832;12.472;2022-10-16T20:18:31;17.70;99.90
14103;DHT22;7129;48.832;12.472;2022-10-16T20:29:26;17.30;99.90
14103;DHT22;7129;48.832;12.472;2022-10-16T20:34:42;17.00;99.90
14103;DHT22;7129;48.832;12.472;2022-10-16T20:45:07;17.00;99.90
14103;DHT22;7129;48.832;12.472;2022-10-16T20:50:10;17.10;99.90
14103;DHT22;7129;48.832;12.472;2022-10-16T20:55:13;17.10;99.90
14103;DHT22;7129;48.832;12.472;2022-10-16T21:00:18;17.20;99.90
14103;DHT22;7129;48.832;12.472;2022-10-16T21:05:20;17.20;99.90
14103;DHT22;7129;48.832;12.472;2022-10-16T21:10:23;17.20;99.90
14103;DHT22;7129;48.832;12.472;2022-10-16T21:15:54;17.20;99.90
14103;DHT22;7129;48.832;12.472;2022-10-16T21:20:56;17.20;99.90
14103;DHT22;7129;48.832;12.472;2022-10-16T21:25:58;17.20;99.90
14103;DHT22;7129;48.832;12.472;2022-10-16T21:31:12;17.20;99.90
14103;DHT22;7129;48.832;12.472;2022-10-16T21:36:15;17.20;99.90
14103;DHT22;7129;48.832;12.472;2022-10-16T21:41:20;17.10;99.90
14103;DHT22;7129;48.832;12.472;2022-10-16T21:46:26;17.20;99.90
14103;DHT22;7129;48.832;12.472;2022-10-16T21:51:30;17.30;99.90
14103;DHT22;7129;48.832;12.472;2022-10-16T21:56:33;17.30;99.90
14103;DHT22;7129;48.832;12.472;2022-10-16T22:01:36;17.30;99.90
14103;DHT22;7129;48.832;12.472;2022-10-16T22:06:39;17.10;99.90
14103;DHT22;7129;48.832;12.472;2022-10-16T22:22:15;16.90;99.90
14103;DHT22;7129;48.832;12.472;2022-10-16T22:27:17;16.80;99.90
14103;DHT22;7129;48.832;12.472;2022-10-16T22:32:19;16.80;99.90
14103;DHT22;7129;48.832;12.472;2022-10-16T22:42:33;16.60;99.90
14103;DHT22;7129;48.832;12.472;2022-10-16T22:47:35;16.60;99.90
14103;DHT22;7129;48.832;12.472;2022-10-16T22:52:37;16.50;99.90
14103;DHT22;7129;48.832;12.472;2022-10-16T22:57:40;16.20;99.90
14103;DHT22;7129;48.832;12.472;2022-10-16T23:02:42;15.90;99.90
14103;DHT22;7129;48.832;12.472;2022-10-16T23:07:45;15.90;99.90
14103;DHT22;7129;48.832;12.472;2022-10-16T23:12:48;15.90;99.90
14103;DHT22;7129;48.832;12.472;2022-10-16T23:17:50;15.90;99.90
14103;DHT22;7129;48.832;12.472;2022-10-16T23:22:52;15.90;99.90
14103;DHT22;7129;48.832;12.472;2022-10-16T23:27:55;15.90;99.90
14103;DHT22;7129;48.832;12.472;2022-10-16T23:32:57;15.90;99.90
14103;DHT22;7129;48.832;12.472;2022-10-16T23:37:59;16.00;99.90
14103;DHT22;7129;48.832;12.472;2022-10-16T23:43:02;16.20;99.90
14103;DHT22;7129;48.832;12.472;2022-10-16T23:48:04;16.30;99.90
14103;DHT22;7129;48.832;12.472;2022-10-16T23:53:06;16.30;99.90
14103;DHT22;7129;48.832;12.472;2022-10-16T23:58:23;16.20;99.90
